sensor_id;sensor_type;location;lat;lon;timestamp;temperature;humidity
2002;DHT22;1003;48.002;7.788;2023-07-28T00:01:00;17.30;99.90
2002;DHT22;1003;48.002;7.788;2023-07-28T00:03:27;17.20;99.90
2002;DHT22;1003;48.002;7.788;2023-07-28T00:05:54;17.20;99.90
2002;DHT22;1003;48.002;7.788;2023-07-28T00:08:21;17.10;99.90
2002;DHT22;1003;48.002;7.788;2023-07-28T00:10:48;17.10;99.90
2002;DHT22;1003;48.002;7.788;2023-07-28T00:13:16;17.10;99.90
2002;DHT22;1003;48.002;7.788;2023-07-28T00:15:43;17.10;99.90
2002;DHT22;1003;48.002;7.788;2023-07-28T00:18:10;17.10;99.90
2002;DHT22;1003;48.002;7.788;2023-07-28T00:20:37;17.10;99.90
2002;DHT22;1003;48.002;7.788;2023-07-28T00:23:04;17.10;99.90
2002;DHT22;1003;48.002;7.788;2023-07-28T00:25:31;17.10;99.90
2002;DHT22;1003;48.002;7.788;2023-07-28T00:27:58;17.10;99.90
2002;DHT22;1003;48.002;7.788;2023-07-28T00:30:26;17.00;99.90
2002;DHT22;1003;48.002;7.788;2023-07-28T00:32:53;17.00;99.90
2002;DHT22;1003;48.002;7.788;2023-07-28T00:35:20;17.10;99.90
2002;DHT22;1003;48.002;7.788;2023-07-28T00:37:47;17.10;99.90
2002;DHT22;1003;48.002;7.788;2023-07-28T00:40:15;17.20;99.90
2002;DHT22;1003;48.002;7.788;2023-07-28T00:42:42;17.30;99.90
2002;DHT22;1003;48.002;7.788;2023-07-28T00:45:09;17.30;99.90
2002;DHT22;1003;48.002;7.788;2023-07-28T00:47:38;17.30;99.90
2002;DHT22;1003;48.002;7.788;2023-07-28T00:50:06;17.30;99.90
2002;DHT22;1003;48.002;7.788;2023-07-28T00:52:35;17.30;99.90
2002;DHT22;1003;48.002;7.788;2023-07-28T00:55:02;17.30;99.90
2002;DHT22;1003;48.002;7.788;2023-07-28T00:57:30;17.30;99.90
2002;DHT22;1003;48.002;7.788;2023-07-28T00:59:57;17.30;99.90
2002;DHT22;1003;48.002;7.788;2023-07-28T01:02:24;17.30;99.90
2002;DHT22;1003;48.002;7.788;2023-07-28T01:04:53;17.20;99.90
2002;DHT22;1003;48.002;7.788;2023-07-28T01:07:26;17.10;99.90
2002;DHT22;1003;48.002;7.788;2023-07-28T01:10:01;17.00;99.90
2002;DHT22;1003;48.002;7.788;2023-07-28T01:12:32;16.90;99.90
2002;DHT22;1003;48.002;7.788;2023-07-28T01:14:59;16.90;99.90
2002;DHT22;1003;48.002;7.788;2023-07-28T01:17:26;16.90;99.90
2002;DHT22;1003;48.002;7.788;2023-07-28T01:19:55;16.90;99.90
2002;DHT22;1003;48.002;7.788;2023-07-28T01:25:32;16.90;99.90
2002;DHT22;1003;48.002;7.788;2023-07-28T01:28:12;16.90;99.90
2002;DHT22;1003;48.002;7.788;2023-07-28T01:30:40;16.90;99.90
2002;DHT22;1003;48.002;7.788;2023-07-28T01:33:07;16.90;99.90
2002;DHT22;1003;48.002;7.788;2023-07-28T01:35:36;17.00;99.90
2002;DHT22;1003;48.002;7.788;2023-07-28T01:38:04;17.00;99.90
2002;DHT22;1003;48.002;7.788;2023-07-28T01:40:31;17.10;99.90
2002;DHT22;1003;48.002;7.788;2023-07-28T01:42:58;17.10;99.90
2002;DHT22;1003;48.002;7.788;2023-07-28T01:45:26;17.10;99.90
2002;DHT22;1003;48.002;7.788;2023-07-28T01:47:53;17.10;99.90
2002;DHT22;1003;48.002;7.788;2023-07-28T01:50:20;17.20;99.90
2002;DHT22;1003;48.002;7.788;2023-07-28T01:52:47;17.30;99.90
2002;DHT22;1003;48.002;7.788;2023-07-28T01:55:14;17.30;99.90
2002;DHT22;1003;48.002;7.788;2023-07-28T01:57:50;17.40;99.90
2002;DHT22;1003;48.002;7.788;2023-07-28T02:00:21;17.50;99.90
2002;DHT22;1003;48.002;7.788;2023-07-28T02:02:50;17.50;99.90
2002;DHT22;1003;48.002;7.788;2023-07-28T02:05:17;17.60;99.90
2002;DHT22;1003;48.002;7.788;2023-07-28T02:07:45;17.70;99.90
2002;DHT22;1003;48.002;7.788;2023-07-28T02:10:13;17.80;99.90
2002;DHT22;1003;48.002;7.788;2023-07-28T02:12:40;17.80;99.90
2002;DHT22;1003;48.002;7.788;2023-07-28T02:15:08;17.90;99.90
2002;DHT22;1003;48.002;7.788;2023-07-28T02:17:35;18.00;99.90
2002;DHT22;1003;48.002;7.788;2023-07-28T02:20:04;18.00;99.90
2002;DHT22;1003;48.002;7.788;2023-07-28T02:22:32;18.10;99.90
2002;DHT22;1003;48.002;7.788;2023-07-28T02:24:59;18.10;99.90
2002;DHT22;1003;48.002;7.788;2023-07-28T02:27:27;18.20;99.90
2002;DHT22;1003;48.002;7.788;2023-07-28T02:29:54;18.20;99.90
2002;DHT22;1003;48.002;7.788;2023-07-28T02:32:21;18.20;99.90
2002;DHT22;1003;48.002;7.788;2023-07-28T02:34:49;18.30;99.90
2002;DHT22;1003;48.002;7.788;2023-07-28T02:37:17;18.30;99.90
2002;DHT22;1003;48.002;7.788;2023-07-28T02:39:44;18.30;99.90
2002;DHT22;1003;48.002;7.788;2023-07-28T02:42:11;18.30;99.90
2002;DHT22;1003;48.002;7.788;2023-07-28T02:44:39;18.40;99.90
2002;DHT22;1003;48.002;7.788;2023-07-28T02:47:06;18.40;99.90
2002;DHT22;1003;48.002;7.788;2023-07-28T02:49:33;18.40;99.90
2002;DHT22;1003;48.002;7.788;2023-07-28T02:52:00;18.40;99.90
2002;DHT22;1003;48.002;7.788;2023-07-28T02:54:29;18.40;99.90
2002;DHT22;1003;48.002;7.788;2023-07-28T02:56:57;18.40;99.90
2002;DHT22;1003;48.002;7.788;2023-07-28T02:59:24;18.40;99.90
2002;DHT22;1003;48.002;7.788;2023-07-28T03:01:51;18.40;99.90
2002;DHT22;1003;48.002;7.788;2023-07-28T03:04:18;18.40;99.90
2002;DHT22;1003;48.002;7.788;2023-07-28T03:06:46;18.40;99.90
2002;DHT22;1003;48.002;7.788;2023-07-28T03:09:14;18.40;99.90
2002;DHT22;1003;48.002;7.788;2023-07-28T03:11:43;18.40;99.90
2002;DHT22;1003;48.002;7.788;2023-07-28T03:14:10;18.40;99.90
2002;DHT22;1003;48.002;7.788;2023-07-28T03:16:38;18.40;99.90
2002;DHT22;1003;48.002;7.788;2023-07-28T03:19:05;18.40;99.90
2002;DHT22;1003;48.002;7.788;2023-07-28T03:21:32;18.30;99.90
2002;DHT22;1003;48.002;7.788;2023-07-28T03:24:00;18.30;99.90
2002;DHT22;1003;48.002;7.788;2023-07-28T03:26:27;18.30;99.90
2002;DHT22;1003;48.002;7.788;2023-07-28T03:28:55;18.30;99.90
2002;DHT22;1003;48.002;7.788;2023-07-28T03:31:22;18.30;99.90
2002;DHT22;1003;48.002;7.788;2023-07-28T03:33:49;18.40;99.90
2002;DHT22;1003;48.002;7.788;2023-07-28T03:36:16;18.40;99.90
2002;DHT22;1003;48.002;7.788;2023-07-28T03:38:45;18.40;99.90
2002;DHT22;1003;48.002;7.788;2023-07-28T03:41:12;18.40;99.90
2002;DHT22;1003;48.002;7.788;2023-07-28T03:43:40;18.50;99.90
2002;DHT22;1003;48.002;7.788;2023-07-28T03:46:09;18.60;99.90
2002;DHT22;1003;48.002;7.788;2023-07-28T03:48:36;18.60;99.90
2002;DHT22;1003;48.002;7.788;2023-07-28T03:51:03;18.60;99.90
2002;DHT22;1003;48.002;7.788;2023-07-28T03:53:30;18.60;99.90
2002;DHT22;1003;48.002;7.788;2023-07-28T03:56:00;18.60;99.90
2002;DHT22;1003;48.002;7.788;2023-07-28T03:58:27;18.60;99.90
2002;DHT22;1003;48.002;7.788;2023-07-28T04:00:55;18.70;99.90
2002;DHT22;1003;48.002;7.788;2023-07-28T04:03:23;18.80;99.90
2002;DHT22;1003;48.002;7.788;2023-07-28T04:05:50;18.80;99.90
2002;DHT22;1003;48.002;7.788;2023-07-28T04:08:17;18.80;99.90
2002;DHT22;1003;48.002;7.788;2023-07-28T04:10:44;18.80;99.90
2002;DHT22;1003;48.002;7.788;2023-07-28T04:13:11;18.90;99.90
2002;DHT22;1003;48.002;7.788;2023-07-28T04:15:39;18.90;99.90
2002;DHT22;1003;48.002;7.788;2023-07-28T04:18:06;18.90;99.90
2002;DHT22;1003;48.002;7.788;2023-07-28T04:20:35;18.90;99.90
2002;DHT22;1003;48.002;7.788;2023-07-28T04:23:02;19.00;99.90
2002;DHT22;1003;48.002;7.788;2023-07-28T04:25:29;19.00;99.90
2002;DHT22;1003;48.002;7.788;2023-07-28T04:27:56;19.10;99.90
2002;DHT22;1003;48.002;7.788;2023-07-28T04:30:23;19.10;99.90
2002;DHT22;1003;48.002;7.788;2023-07-28T04:32:49;19.10;99.90
2002;DHT22;1003;48.002;7.788;2023-07-28T04:35:17;19.20;99.90
2002;DHT22;1003;48.002;7.788;2023-07-28T04:37:45;19.20;99.90
2002;DHT22;1003;48.002;7.788;2023-07-28T04:40:12;19.30;99.90
2002;DHT22;1003;48.002;7.788;2023-07-28T04:42:39;19.30;99.90
2002;DHT22;1003;48.002;7.788;2023-07-28T04:45:07;19.40;99.90
2002;DHT22;1003;48.002;7.788;2023-07-28T04:47:35;19.40;99.90
2002;DHT22;1003;48.002;7.788;2023-07-28T04:50:02;19.50;99.90
2002;DHT22;1003;48.002;7.788;2023-07-28T04:52:29;19.50;99.90
2002;DHT22;1003;48.002;7.788;2023-07-28T04:54:57;19.60;99.90
2002;DHT22;1003;48.002;7.788;2023-07-28T04:57:24;19.60;99.90
2002;DHT22;1003;48.002;7.788;2023-07-28T04:59:51;19.70;99.90
2002;DHT22;1003;48.002;7.788;2023-07-28T05:02:18;19.70;99.90
2002;DHT22;1003;48.002;7.788;2023-07-28T05:04:45;19.70;99.90
2002;DHT22;1003;48.002;7.788;2023-07-28T05:07:12;19.80;99.90
2002;DHT22;1003;48.002;7.788;2023-07-28T05:09:39;19.80;99.90
2002;DHT22;1003;48.002;7.788;2023-07-28T05:12:08;19.80;99.90
2002;DHT22;1003;48.002;7.788;2023-07-28T05:14:35;19.90;99.90
2002;DHT22;1003;48.002;7.788;2023-07-28T05:17:02;19.90;99.90
2002;DHT22;1003;48.002;7.788;2023-07-28T05:19:30;20.00;99.90
2002;DHT22;1003;48.002;7.788;2023-07-28T05:21:58;20.00;99.90
2002;DHT22;1003;48.002;7.788;2023-07-28T05:24:25;20.00;99.90
2002;DHT22;1003;48.002;7.788;2023-07-28T05:26:52;20.00;99.90
2002;DHT22;1003;48.002;7.788;2023-07-28T05:29:20;20.10;99.90
2002;DHT22;1003;48.002;7.788;2023-07-28T05:31:48;20.00;99.90
2002;DHT22;1003;48.002;7.788;2023-07-28T05:34:15;20.10;99.90
2002;DHT22;1003;48.002;7.788;2023-07-28T05:36:43;20.20;99.90
2002;DHT22;1003;48.002;7.788;2023-07-28T05:39:10;20.30;99.90
2002;DHT22;1003;48.002;7.788;2023-07-28T05:41:37;20.30;99.90
2002;DHT22;1003;48.002;7.788;2023-07-28T05:44:04;20.40;99.90
2002;DHT22;1003;48.002;7.788;2023-07-28T05:46:33;20.40;99.90
2002;DHT22;1003;48.002;7.788;2023-07-28T05:49:00;20.50;99.90
2002;DHT22;1003;48.002;7.788;2023-07-28T05:51:27;20.50;99.90
2002;DHT22;1003;48.002;7.788;2023-07-28T05:53:54;20.60;99.90
2002;DHT22;1003;48.002;7.788;2023-07-28T05:56:21;20.50;99.90
2002;DHT22;1003;48.002;7.788;2023-07-28T05:58:49;20.50;99.90
2002;DHT22;1003;48.002;7.788;2023-07-28T06:01:16;20.60;99.90
2002;DHT22;1003;48.002;7.788;2023-07-28T06:03:45;20.60;99.90
2002;DHT22;1003;48.002;7.788;2023-07-28T06:06:12;20.50;99.90
2002;DHT22;1003;48.002;7.788;2023-07-28T06:08:39;20.50;99.90
2002;DHT22;1003;48.002;7.788;2023-07-28T06:11:06;20.50;99.90
2002;DHT22;1003;48.002;7.788;2023-07-28T06:13:33;20.50;99.90
2002;DHT22;1003;48.002;7.788;2023-07-28T06:16:00;20.50;99.90
2002;DHT22;1003;48.002;7.788;2023-07-28T06:18:27;20.50;99.90
2002;DHT22;1003;48.002;7.788;2023-07-28T06:20:56;20.50;99.90
2002;DHT22;1003;48.002;7.788;2023-07-28T06:23:23;20.40;99.90
2002;DHT22;1003;48.002;7.788;2023-07-28T06:25:50;20.40;99.90
2002;DHT22;1003;48.002;7.788;2023-07-28T06:28:20;20.50;99.90
2002;DHT22;1003;48.002;7.788;2023-07-28T06:30:47;20.50;99.90
2002;DHT22;1003;48.002;7.788;2023-07-28T06:33:20;20.50;99.90
2002;DHT22;1003;48.002;7.788;2023-07-28T06:35:47;20.50;99.90
2002;DHT22;1003;48.002;7.788;2023-07-28T06:38:15;20.50;99.90
2002;DHT22;1003;48.002;7.788;2023-07-28T06:40:42;20.50;99.90
2002;DHT22;1003;48.002;7.788;2023-07-28T06:43:10;20.60;99.90
2002;DHT22;1003;48.002;7.788;2023-07-28T06:45:37;20.60;99.90
2002;DHT22;1003;48.002;7.788;2023-07-28T06:48:04;20.60;99.90
2002;DHT22;1003;48.002;7.788;2023-07-28T06:50:31;20.70;99.90
2002;DHT22;1003;48.002;7.788;2023-07-28T06:52:58;20.70;99.90
2002;DHT22;1003;48.002;7.788;2023-07-28T06:55:27;20.80;99.90
2002;DHT22;1003;48.002;7.788;2023-07-28T06:57:54;21.00;99.90
2002;DHT22;1003;48.002;7.788;2023-07-28T07:00:21;21.00;99.90
2002;DHT22;1003;48.002;7.788;2023-07-28T07:02:48;21.10;99.90
2002;DHT22;1003;48.002;7.788;2023-07-28T07:05:15;21.20;99.90
2002;DHT22;1003;48.002;7.788;2023-07-28T07:07:42;21.20;99.90
2002;DHT22;1003;48.002;7.788;2023-07-28T07:10:09;21.20;99.90
2002;DHT22;1003;48.002;7.788;2023-07-28T07:12:38;21.20;99.90
2002;DHT22;1003;48.002;7.788;2023-07-28T07:15:06;21.20;99.90
2002;DHT22;1003;48.002;7.788;2023-07-28T07:17:34;21.30;99.90
2002;DHT22;1003;48.002;7.788;2023-07-28T07:20:01;21.40;99.90
2002;DHT22;1003;48.002;7.788;2023-07-28T07:22:28;21.40;99.90
2002;DHT22;1003;48.002;7.788;2023-07-28T07:24:55;21.60;99.90
2002;DHT22;1003;48.002;7.788;2023-07-28T07:27:24;21.70;99.90
2002;DHT22;1003;48.002;7.788;2023-07-28T07:29:53;21.90;99.90
2002;DHT22;1003;48.002;7.788;2023-07-28T07:32:20;22.10;99.90
2002;DHT22;1003;48.002;7.788;2023-07-28T07:34:47;22.20;99.90
2002;DHT22;1003;48.002;7.788;2023-07-28T07:37:14;22.30;99.90
2002;DHT22;1003;48.002;7.788;2023-07-28T07:39:41;22.40;99.90
2002;DHT22;1003;48.002;7.788;2023-07-28T07:42:09;22.40;99.90
2002;DHT22;1003;48.002;7.788;2023-07-28T07:44:39;22.30;99.90
2002;DHT22;1003;48.002;7.788;2023-07-28T07:47:13;22.20;99.90
2002;DHT22;1003;48.002;7.788;2023-07-28T07:49:42;22.20;99.90
2002;DHT22;1003;48.002;7.788;2023-07-28T07:52:09;22.20;99.90
2002;DHT22;1003;48.002;7.788;2023-07-28T07:54:37;22.20;99.90
2002;DHT22;1003;48.002;7.788;2023-07-28T07:57:07;22.20;99.90
2002;DHT22;1003;48.002;7.788;2023-07-28T07:59:34;22.20;99.90
2002;DHT22;1003;48.002;7.788;2023-07-28T08:02:03;22.20;99.90
2002;DHT22;1003;48.002;7.788;2023-07-28T08:04:32;22.20;99.90
2002;DHT22;1003;48.002;7.788;2023-07-28T08:06:59;22.30;99.90
2002;DHT22;1003;48.002;7.788;2023-07-28T08:09:26;22.40;99.90
2002;DHT22;1003;48.002;7.788;2023-07-28T08:11:54;22.40;99.90
2002;DHT22;1003;48.002;7.788;2023-07-28T08:14:21;22.30;99.90
2002;DHT22;1003;48.002;7.788;2023-07-28T08:16:48;22.40;99.90
2002;DHT22;1003;48.002;7.788;2023-07-28T08:19:15;22.40;99.90
2002;DHT22;1003;48.002;7.788;2023-07-28T08:21:45;22.30;99.90
2002;DHT22;1003;48.002;7.788;2023-07-28T08:24:12;22.40;99.90
2002;DHT22;1003;48.002;7.788;2023-07-28T08:26:42;22.40;99.90
2002;DHT22;1003;48.002;7.788;2023-07-28T08:29:09;22.40;99.90
2002;DHT22;1003;48.002;7.788;2023-07-28T08:31:36;22.40;99.90
2002;DHT22;1003;48.002;7.788;2023-07-28T08:34:03;22.50;99.90
2002;DHT22;1003;48.002;7.788;2023-07-28T08:36:30;22.60;99.90
2002;DHT22;1003;48.002;7.788;2023-07-28T08:38:59;22.80;99.90
2002;DHT22;1003;48.002;7.788;2023-07-28T08:41:29;23.20;99.90
2002;DHT22;1003;48.002;7.788;2023-07-28T08:43:57;23.40;99.90
2002;DHT22;1003;48.002;7.788;2023-07-28T08:46:24;23.50;99.90
2002;DHT22;1003;48.002;7.788;2023-07-28T08:48:52;23.70;99.90
2002;DHT22;1003;48.002;7.788;2023-07-28T08:51:22;24.00;99.90
2002;DHT22;1003;48.002;7.788;2023-07-28T08:53:50;24.10;99.90
2002;DHT22;1003;48.002;7.788;2023-07-28T08:56:20;24.20;99.90
2002;DHT22;1003;48.002;7.788;2023-07-28T08:58:49;24.20;99.90
2002;DHT22;1003;48.002;7.788;2023-07-28T09:01:17;24.40;99.90
2002;DHT22;1003;48.002;7.788;2023-07-28T09:03:50;24.40;99.90
2002;DHT22;1003;48.002;7.788;2023-07-28T09:06:17;24.20;99.90
2002;DHT22;1003;48.002;7.788;2023-07-28T09:08:45;24.30;99.90
2002;DHT22;1003;48.002;7.788;2023-07-28T09:11:15;24.40;99.90
2002;DHT22;1003;48.002;7.788;2023-07-28T09:13:45;24.40;99.90
2002;DHT22;1003;48.002;7.788;2023-07-28T09:16:18;24.40;99.90
2002;DHT22;1003;48.002;7.788;2023-07-28T09:18:47;24.40;99.90
2002;DHT22;1003;48.002;7.788;2023-07-28T09:21:18;24.50;99.90
2002;DHT22;1003;48.002;7.788;2023-07-28T09:23:47;24.40;99.90
2002;DHT22;1003;48.002;7.788;2023-07-28T09:26:17;24.50;99.90
2002;DHT22;1003;48.002;7.788;2023-07-28T09:28:46;24.60;99.90
2002;DHT22;1003;48.002;7.788;2023-07-28T09:31:14;24.70;99.90
2002;DHT22;1003;48.002;7.788;2023-07-28T09:33:41;24.60;99.90
2002;DHT22;1003;48.002;7.788;2023-07-28T09:36:13;24.60;99.90
2002;DHT22;1003;48.002;7.788;2023-07-28T09:38:42;24.70;99.90
2002;DHT22;1003;48.002;7.788;2023-07-28T09:41:10;24.90;99.90
2002;DHT22;1003;48.002;7.788;2023-07-28T09:43:41;25.00;99.90
2002;DHT22;1003;48.002;7.788;2023-07-28T09:46:12;25.10;99.90
2002;DHT22;1003;48.002;7.788;2023-07-28T09:48:45;25.40;99.90
2002;DHT22;1003;48.002;7.788;2023-07-28T09:51:19;25.60;99.90
2002;DHT22;1003;48.002;7.788;2023-07-28T09:53:52;25.70;99.90
2002;DHT22;1003;48.002;7.788;2023-07-28T09:56:27;25.80;99.90
2002;DHT22;1003;48.002;7.788;2023-07-28T09:58:57;26.00;99.90
2002;DHT22;1003;48.002;7.788;2023-07-28T10:01:28;26.00;99.90
2002;DHT22;1003;48.002;7.788;2023-07-28T10:03:57;26.10;99.90
2002;DHT22;1003;48.002;7.788;2023-07-28T10:06:25;26.20;99.90
2002;DHT22;1003;48.002;7.788;2023-07-28T10:08:55;26.20;99.90
2002;DHT22;1003;48.002;7.788;2023-07-28T10:11:23;26.10;99.90
2002;DHT22;1003;48.002;7.788;2023-07-28T10:13:51;25.90;99.90
2002;DHT22;1003;48.002;7.788;2023-07-28T10:16:30;26.00;99.90
2002;DHT22;1003;48.002;7.788;2023-07-28T10:19:03;26.00;99.90
2002;DHT22;1003;48.002;7.788;2023-07-28T10:21:30;25.90;99.90
2002;DHT22;1003;48.002;7.788;2023-07-28T10:23:58;25.90;99.90
2002;DHT22;1003;48.002;7.788;2023-07-28T10:26:34;25.80;99.90
2002;DHT22;1003;48.002;7.788;2023-07-28T10:29:09;25.50;99.90
2002;DHT22;1003;48.002;7.788;2023-07-28T10:31:49;25.30;99.90
2002;DHT22;1003;48.002;7.788;2023-07-28T10:34:17;25.20;99.90
2002;DHT22;1003;48.002;7.788;2023-07-28T10:36:45;25.10;99.90
2002;DHT22;1003;48.002;7.788;2023-07-28T10:39:14;25.20;99.90
2002;DHT22;1003;48.002;7.788;2023-07-28T10:42:01;25.20;99.90
2002;DHT22;1003;48.002;7.788;2023-07-28T10:44:30;25.20;99.90
2002;DHT22;1003;48.002;7.788;2023-07-28T10:46:59;25.10;99.90
2002;DHT22;1003;48.002;7.788;2023-07-28T10:49:26;25.30;99.90
2002;DHT22;1003;48.002;7.788;2023-07-28T10:51:53;25.30;99.90
2002;DHT22;1003;48.002;7.788;2023-07-28T10:54:21;25.40;99.90
2002;DHT22;1003;48.002;7.788;2023-07-28T10:56:48;25.30;99.90
2002;DHT22;1003;48.002;7.788;2023-07-28T10:59:15;25.20;99.90
2002;DHT22;1003;48.002;7.788;2023-07-28T11:01:43;25.10;99.90
2002;DHT22;1003;48.002;7.788;2023-07-28T11:04:14;25.10;99.90
2002;DHT22;1003;48.002;7.788;2023-07-28T11:06:44;25.20;99.90
2002;DHT22;1003;48.002;7.788;2023-07-28T11:09:13;25.20;99.90
2002;DHT22;1003;48.002;7.788;2023-07-28T11:11:43;25.00;99.90
2002;DHT22;1003;48.002;7.788;2023-07-28T11:14:11;25.10;99.90
2002;DHT22;1003;48.002;7.788;2023-07-28T11:16:39;25.20;99.90
2002;DHT22;1003;48.002;7.788;2023-07-28T11:19:08;25.30;99.90
2002;DHT22;1003;48.002;7.788;2023-07-28T11:21:38;25.20;99.90
2002;DHT22;1003;48.002;7.788;2023-07-28T11:24:07;25.10;99.90
2002;DHT22;1003;48.002;7.788;2023-07-28T11:26:35;25.30;99.90
2002;DHT22;1003;48.002;7.788;2023-07-28T11:29:03;25.40;99.90
2002;DHT22;1003;48.002;7.788;2023-07-28T11:31:31;25.20;99.90
2002;DHT22;1003;48.002;7.788;2023-07-28T11:33:59;25.00;99.90
2002;DHT22;1003;48.002;7.788;2023-07-28T11:36:28;24.90;99.90
2002;DHT22;1003;48.002;7.788;2023-07-28T11:38:58;24.90;99.90
2002;DHT22;1003;48.002;7.788;2023-07-28T11:41:27;25.10;99.90
2002;DHT22;1003;48.002;7.788;2023-07-28T11:43:55;25.10;99.90
2002;DHT22;1003;48.002;7.788;2023-07-28T11:46:32;24.90;99.90
2002;DHT22;1003;48.002;7.788;2023-07-28T11:49:07;25.00;99.90
2002;DHT22;1003;48.002;7.788;2023-07-28T11:51:39;25.00;99.90
2002;DHT22;1003;48.002;7.788;2023-07-28T11:54:12;25.10;99.90
2002;DHT22;1003;48.002;7.788;2023-07-28T11:56:40;25.20;99.90
2002;DHT22;1003;48.002;7.788;2023-07-28T11:59:08;25.20;99.90
2002;DHT22;1003;48.002;7.788;2023-07-28T12:01:49;24.90;99.90
2002;DHT22;1003;48.002;7.788;2023-07-28T12:04:21;25.00;99.90
2002;DHT22;1003;48.002;7.788;2023-07-28T12:07:03;25.00;99.90
2002;DHT22;1003;48.002;7.788;2023-07-28T12:09:33;24.80;99.90
2002;DHT22;1003;48.002;7.788;2023-07-28T12:12:14;24.70;99.90
2002;DHT22;1003;48.002;7.788;2023-07-28T12:14:42;24.60;99.90
2002;DHT22;1003;48.002;7.788;2023-07-28T12:17:12;24.60;99.90
2002;DHT22;1003;48.002;7.788;2023-07-28T12:19:41;24.40;99.90
2002;DHT22;1003;48.002;7.788;2023-07-28T12:22:09;24.20;99.90
2002;DHT22;1003;48.002;7.788;2023-07-28T12:24:38;24.10;99.90
2002;DHT22;1003;48.002;7.788;2023-07-28T12:27:10;23.90;99.90
2002;DHT22;1003;48.002;7.788;2023-07-28T12:29:38;23.90;99.90
2002;DHT22;1003;48.002;7.788;2023-07-28T12:32:06;23.80;99.90
2002;DHT22;1003;48.002;7.788;2023-07-28T12:34:34;23.80;99.90
2002;DHT22;1003;48.002;7.788;2023-07-28T12:37:01;23.80;99.90
2002;DHT22;1003;48.002;7.788;2023-07-28T12:39:28;23.70;99.90
2002;DHT22;1003;48.002;7.788;2023-07-28T12:41:57;23.70;99.90
2002;DHT22;1003;48.002;7.788;2023-07-28T12:44:24;23.80;99.90
2002;DHT22;1003;48.002;7.788;2023-07-28T12:46:51;23.80;99.90
2002;DHT22;1003;48.002;7.788;2023-07-28T12:49:18;24.00;99.90
2002;DHT22;1003;48.002;7.788;2023-07-28T12:51:46;24.00;99.90
2002;DHT22;1003;48.002;7.788;2023-07-28T12:54:13;24.00;99.90
2002;DHT22;1003;48.002;7.788;2023-07-28T12:56:40;23.90;99.90
2002;DHT22;1003;48.002;7.788;2023-07-28T12:59:09;23.90;99.90
2002;DHT22;1003;48.002;7.788;2023-07-28T13:01:37;23.90;99.90
2002;DHT22;1003;48.002;7.788;2023-07-28T13:04:04;23.70;99.90
2002;DHT22;1003;48.002;7.788;2023-07-28T13:06:31;23.20;99.90
2002;DHT22;1003;48.002;7.788;2023-07-28T13:08:58;23.10;99.90
2002;DHT22;1003;48.002;7.788;2023-07-28T13:11:25;22.90;99.90
2002;DHT22;1003;48.002;7.788;2023-07-28T13:13:52;22.90;99.90
2002;DHT22;1003;48.002;7.788;2023-07-28T13:16:21;23.10;99.90
2002;DHT22;1003;48.002;7.788;2023-07-28T13:18:48;23.20;99.90
2002;DHT22;1003;48.002;7.788;2023-07-28T13:21:15;23.30;99.90
2002;DHT22;1003;48.002;7.788;2023-07-28T13:23:42;23.30;99.90
2002;DHT22;1003;48.002;7.788;2023-07-28T13:26:09;23.30;99.90
2002;DHT22;1003;48.002;7.788;2023-07-28T13:28:36;23.20;99.90
2002;DHT22;1003;48.002;7.788;2023-07-28T13:31:06;23.20;99.90
2002;DHT22;1003;48.002;7.788;2023-07-28T13:33:34;23.20;99.90
2002;DHT22;1003;48.002;7.788;2023-07-28T13:36:01;23.20;99.90
2002;DHT22;1003;48.002;7.788;2023-07-28T13:38:32;23.10;99.90
2002;DHT22;1003;48.002;7.788;2023-07-28T13:40:59;23.20;99.90
2002;DHT22;1003;48.002;7.788;2023-07-28T13:43:26;23.10;99.90
2002;DHT22;1003;48.002;7.788;2023-07-28T13:45:54;23.30;99.90
2002;DHT22;1003;48.002;7.788;2023-07-28T13:48:21;23.50;99.90
2002;DHT22;1003;48.002;7.788;2023-07-28T13:50:49;23.50;99.90
2002;DHT22;1003;48.002;7.788;2023-07-28T13:53:16;23.40;99.90
2002;DHT22;1003;48.002;7.788;2023-07-28T13:55:43;23.40;99.90
2002;DHT22;1003;48.002;7.788;2023-07-28T13:58:10;23.60;99.90
2002;DHT22;1003;48.002;7.788;2023-07-28T14:00:37;23.70;99.90
2002;DHT22;1003;48.002;7.788;2023-07-28T14:03:04;23.80;99.90
2002;DHT22;1003;48.002;7.788;2023-07-28T14:05:31;24.10;99.90
2002;DHT22;1003;48.002;7.788;2023-07-28T14:08:00;24.20;99.90
2002;DHT22;1003;48.002;7.788;2023-07-28T14:10:27;24.40;99.90
2002;DHT22;1003;48.002;7.788;2023-07-28T14:12:54;24.50;99.90
2002;DHT22;1003;48.002;7.788;2023-07-28T14:15:21;24.60;99.90
2002;DHT22;1003;48.002;7.788;2023-07-28T14:17:48;24.70;99.90
2002;DHT22;1003;48.002;7.788;2023-07-28T14:20:15;24.80;99.90
2002;DHT22;1003;48.002;7.788;2023-07-28T14:22:43;25.00;99.90
2002;DHT22;1003;48.002;7.788;2023-07-28T14:25:11;25.10;99.90
2002;DHT22;1003;48.002;7.788;2023-07-28T14:27:38;25.20;99.90
2002;DHT22;1003;48.002;7.788;2023-07-28T14:30:06;25.20;99.90
2002;DHT22;1003;48.002;7.788;2023-07-28T14:32:34;25.20;99.90
2002;DHT22;1003;48.002;7.788;2023-07-28T14:35:01;25.00;99.90
2002;DHT22;1003;48.002;7.788;2023-07-28T14:37:28;24.80;99.90
2002;DHT22;1003;48.002;7.788;2023-07-28T14:39:55;24.80;99.90
2002;DHT22;1003;48.002;7.788;2023-07-28T14:42:24;24.80;99.90
2002;DHT22;1003;48.002;7.788;2023-07-28T14:44:51;24.80;99.90
2002;DHT22;1003;48.002;7.788;2023-07-28T14:47:18;24.80;99.90
2002;DHT22;1003;48.002;7.788;2023-07-28T14:49:45;24.80;99.90
2002;DHT22;1003;48.002;7.788;2023-07-28T14:52:12;24.70;99.90
2002;DHT22;1003;48.002;7.788;2023-07-28T14:54:39;24.40;99.90
2002;DHT22;1003;48.002;7.788;2023-07-28T14:57:06;24.10;99.90
2002;DHT22;1003;48.002;7.788;2023-07-28T14:59:40;24.00;99.90
2002;DHT22;1003;48.002;7.788;2023-07-28T15:02:08;23.80;99.90
2002;DHT22;1003;48.002;7.788;2023-07-28T15:04:37;23.60;99.90
2002;DHT22;1003;48.002;7.788;2023-07-28T15:07:05;23.40;99.90
2002;DHT22;1003;48.002;7.788;2023-07-28T15:09:33;23.30;99.90
2002;DHT22;1003;48.002;7.788;2023-07-28T15:12:00;23.10;99.90
2002;DHT22;1003;48.002;7.788;2023-07-28T15:14:27;22.90;99.90
2002;DHT22;1003;48.002;7.788;2023-07-28T15:16:56;22.70;99.90
2002;DHT22;1003;48.002;7.788;2023-07-28T15:19:23;22.60;99.90
2002;DHT22;1003;48.002;7.788;2023-07-28T15:21:51;22.30;99.90
2002;DHT22;1003;48.002;7.788;2023-07-28T15:24:19;22.10;99.90
2002;DHT22;1003;48.002;7.788;2023-07-28T15:26:47;22.00;99.90
2002;DHT22;1003;48.002;7.788;2023-07-28T15:29:17;22.00;99.90
2002;DHT22;1003;48.002;7.788;2023-07-28T15:31:45;21.90;99.90
2002;DHT22;1003;48.002;7.788;2023-07-28T15:34:13;21.90;99.90
2002;DHT22;1003;48.002;7.788;2023-07-28T15:36:41;21.90;99.90
2002;DHT22;1003;48.002;7.788;2023-07-28T15:39:08;21.90;99.90
2002;DHT22;1003;48.002;7.788;2023-07-28T15:41:35;22.00;99.90
2002;DHT22;1003;48.002;7.788;2023-07-28T15:44:02;22.00;99.90
2002;DHT22;1003;48.002;7.788;2023-07-28T15:46:29;22.00;99.90
2002;DHT22;1003;48.002;7.788;2023-07-28T15:48:57;21.90;99.90
2002;DHT22;1003;48.002;7.788;2023-07-28T15:51:25;21.60;99.90
2002;DHT22;1003;48.002;7.788;2023-07-28T15:53:52;21.40;99.90
2002;DHT22;1003;48.002;7.788;2023-07-28T15:56:20;21.30;99.90
2002;DHT22;1003;48.002;7.788;2023-07-28T15:58:50;21.20;99.90
2002;DHT22;1003;48.002;7.788;2023-07-28T16:01:17;21.10;99.90
2002;DHT22;1003;48.002;7.788;2023-07-28T16:03:45;21.10;99.90
2002;DHT22;1003;48.002;7.788;2023-07-28T16:06:12;21.10;99.90
2002;DHT22;1003;48.002;7.788;2023-07-28T16:08:42;21.10;99.90
2002;DHT22;1003;48.002;7.788;2023-07-28T16:11:09;21.20;99.90